createdAt,value
2022-12-04T00:01:31.192Z,95953.00
2022-12-04T00:05:35.653Z,95953.00
2022-12-04T00:09:38.980Z,95959.00
2022-12-04T00:13:42.282Z,95964.00
2022-12-04T00:17:48.593Z,95952.00
2022-12-04T00:21:53.904Z,95946.00
2022-12-04T00:26:01.552Z,95948.00
2022-12-04T00:30:05.402Z,95953.00
2022-12-04T00:34:08.571Z,95949.00
2022-12-04T00:38:13.038Z,95944.00
2022-12-04T00:42:16.084Z,95935.00
2022-12-04T00:46:19.593Z,95933.00
2022-12-04T00:50:23.129Z,95922.00
2022-12-04T00:54:27.625Z,95932.00
2022-12-04T00:58:30.661Z,95949.00
2022-12-04T01:02:33.907Z,95937.00
2022-12-04T01:06:37.028Z,95933.00
2022-12-04T01:10:42.983Z,95927.00
2022-12-04T01:14:46.289Z,95922.00
2022-12-04T01:18:50.144Z,95925.00
2022-12-04T01:22:53.214Z,95922.00
2022-12-04T01:26:57.673Z,95920.00
2022-12-04T01:31:02.302Z,95917.00
2022-12-04T01:35:06.318Z,95921.00
2022-12-04T01:39:09.414Z,95921.00
2022-12-04T01:43:14.551Z,95922.00
2022-12-04T01:47:17.744Z,95916.00
2022-12-04T01:51:24.171Z,95921.00
2022-12-04T01:55:27.385Z,95916.00
2022-12-04T01:59:36.539Z,95919.00
2022-12-04T02:03:40.624Z,95916.00
2022-12-04T02:07:45.582Z,95914.00
2022-12-04T02:11:53.801Z,95920.00
2022-12-04T02:16:07.633Z,95917.00
2022-12-04T02:20:29.929Z,95926.00
2022-12-04T02:24:50.017Z,95925.00
2022-12-04T02:28:58.877Z,95936.00
2022-12-04T02:33:07.138Z,95920.00
2022-12-04T02:37:14.093Z,95914.00
2022-12-04T02:41:26.638Z,95902.00
2022-12-04T02:45:34.915Z,95899.00
2022-12-04T02:49:43.717Z,95881.00
2022-12-04T02:53:50.881Z,95879.00
2022-12-04T02:57:59.039Z,95861.00
2022-12-04T03:02:08.984Z,95873.00
2022-12-04T03:06:15.365Z,95862.00
2022-12-04T03:10:27.758Z,95858.00
2022-12-04T03:14:33.532Z,95851.00
2022-12-04T03:18:43.389Z,95857.00
2022-12-04T03:22:51.694Z,95862.00
2022-12-04T03:27:01.355Z,95860.00
2022-12-04T03:31:08.336Z,95851.00
2022-12-04T03:35:20.235Z,95853.00
2022-12-04T03:39:27.815Z,95840.00
2022-12-04T03:43:37.136Z,95846.00
2022-12-04T03:47:44.416Z,95837.00
2022-12-04T03:51:56.218Z,95825.00
2022-12-04T03:56:04.776Z,95828.00
2022-12-04T04:00:12.081Z,95816.00
2022-12-04T04:04:17.429Z,95814.00
2022-12-04T04:08:34.025Z,95821.00
2022-12-04T04:12:41.736Z,95826.00
2022-12-04T04:17:06.681Z,95815.00
2022-12-04T04:21:27.121Z,95818.00
2022-12-04T04:25:32.694Z,95820.00
2022-12-04T04:29:36.007Z,95826.00
2022-12-04T04:33:48.666Z,95835.00
2022-12-04T04:37:58.917Z,95849.00
2022-12-04T04:42:12.687Z,95851.00
2022-12-04T04:46:21.051Z,95853.00
2022-12-04T04:50:24.879Z,95832.00
2022-12-04T04:54:30.959Z,95840.00
2022-12-04T04:58:35.523Z,95850.00
2022-12-04T05:02:38.741Z,95841.00
2022-12-04T05:06:41.948Z,95838.00
2022-12-04T05:10:45.005Z,95836.00
2022-12-04T05:14:49.778Z,95835.00
2022-12-04T05:19:10.268Z,95834.00
2022-12-04T05:23:13.458Z,95845.00
2022-12-04T05:27:16.756Z,95835.00
2022-12-04T05:31:21.221Z,95836.00
2022-12-04T05:35:24.333Z,95844.00
2022-12-04T05:39:27.454Z,95845.00
2022-12-04T05:43:31.002Z,95843.00
2022-12-04T05:47:39.565Z,95840.00
2022-12-04T05:51:42.675Z,95844.00
2022-12-04T05:55:45.712Z,95854.00
2022-12-04T05:59:48.857Z,95854.00
2022-12-04T06:03:53.867Z,95860.00
2022-12-04T06:07:56.970Z,95866.00
2022-12-04T06:12:00.479Z,95856.00
2022-12-04T06:16:03.585Z,95865.00
2022-12-04T06:20:11.714Z,95852.00
2022-12-04T06:24:17.262Z,95849.00
2022-12-04T06:28:20.343Z,95857.00
2022-12-04T06:32:23.421Z,95863.00
2022-12-04T06:36:28.034Z,95844.00
2022-12-04T06:40:31.453Z,95855.00
2022-12-04T06:44:34.738Z,95852.00
2022-12-04T06:48:38.472Z,95857.00
2022-12-04T06:52:42.945Z,95854.00
2022-12-04T06:56:46.357Z,95848.00
2022-12-04T07:00:51.147Z,95848.00
2022-12-04T07:04:57.537Z,95824.00
2022-12-04T07:09:05.017Z,95830.00
2022-12-04T07:13:08.981Z,95834.00
2022-12-04T07:17:12.535Z,95835.00
2022-12-04T07:21:19.299Z,95826.00
2022-12-04T07:25:24.113Z,95821.00
2022-12-04T07:29:27.356Z,95828.00
2022-12-04T07:33:30.969Z,95827.00
2022-12-04T07:38:25.502Z,95828.00
2022-12-04T07:43:04.096Z,95844.00
2022-12-04T07:48:01.277Z,95848.00
2022-12-04T07:52:19.462Z,95844.00
2022-12-04T07:56:56.598Z,95840.00
2022-12-04T08:01:34.836Z,95834.00
2022-12-04T08:06:08.989Z,95846.00
2022-12-04T08:10:46.112Z,95844.00
2022-12-04T08:15:22.761Z,95862.00
2022-12-04T08:20:09.421Z,95874.00
2022-12-04T08:24:38.698Z,95869.00
2022-12-04T08:28:42.558Z,95853.00
2022-12-04T08:32:45.795Z,95853.00
2022-12-04T08:37:23.889Z,95851.00
2022-12-04T08:41:57.746Z,95851.00
2022-12-04T08:46:34.740Z,95871.00
2022-12-04T08:51:08.952Z,95858.00
2022-12-04T08:55:47.465Z,95853.00
2022-12-04T08:59:50.444Z,95846.00
2022-12-04T09:03:53.847Z,95847.00
2022-12-04T09:07:57.114Z,95845.00
2022-12-04T09:12:35.641Z,95864.00
2022-12-04T09:17:12.506Z,95878.00
2022-12-04T09:21:49.650Z,95865.00
2022-12-04T09:26:27.441Z,95866.00
2022-12-04T09:31:06.905Z,95882.00
2022-12-04T09:35:40.742Z,95868.00
2022-12-04T09:40:23.800Z,95857.00
2022-12-04T09:44:54.346Z,95857.00
2022-12-04T09:49:03.337Z,95851.00
2022-12-04T09:53:34.744Z,95843.00
2022-12-04T09:58:13.797Z,95842.00
2022-12-04T10:02:52.664Z,95833.00
2022-12-04T10:07:30.231Z,95829.00
2022-12-04T10:12:11.595Z,95819.00
2022-12-04T10:16:44.764Z,95814.00
2022-12-04T10:21:30.494Z,95807.00
2022-12-04T10:25:38.072Z,95804.00
2022-12-04T10:29:44.028Z,95798.00
2022-12-04T10:34:20.301Z,95790.00
2022-12-04T10:38:32.250Z,95791.00
2022-12-04T10:42:42.521Z,95786.00
2022-12-04T10:47:13.595Z,95767.00
2022-12-04T10:51:47.812Z,95754.00
2022-12-04T10:55:50.869Z,95752.00
2022-12-04T10:59:57.168Z,95762.00
2022-12-04T11:04:03.926Z,95765.00
2022-12-04T11:08:08.758Z,95770.00
2022-12-04T11:12:19.969Z,95751.00
2022-12-04T11:16:35.470Z,95753.00
2022-12-04T11:21:01.587Z,95746.00
2022-12-04T11:25:04.748Z,95740.00
2022-12-04T11:29:13.575Z,95723.00
2022-12-04T11:33:23.156Z,95709.00
2022-12-04T11:37:28.337Z,95715.00
2022-12-04T11:41:33.592Z,95722.00
2022-12-04T11:45:36.648Z,95725.00
2022-12-04T11:49:43.950Z,95717.00
2022-12-04T11:54:24.076Z,95711.00
2022-12-04T11:58:46.550Z,95711.00
2022-12-04T12:03:27.685Z,95701.00
2022-12-04T12:07:44.568Z,95700.00
2022-12-04T12:12:10.333Z,95721.00
2022-12-04T12:16:21.237Z,95726.00
2022-12-04T12:20:55.021Z,95731.00
2022-12-04T12:25:07.147Z,95727.00
2022-12-04T12:29:40.434Z,95720.00
2022-12-04T12:33:48.940Z,95702.00
2022-12-04T12:37:54.758Z,95699.00
2022-12-04T12:42:02.297Z,95700.00
2022-12-04T12:46:36.205Z,95699.00
2022-12-04T12:51:29.632Z,95696.00
2022-12-04T12:55:38.095Z,95674.00
2022-12-04T13:00:15.727Z,95664.00
2022-12-04T13:04:46.683Z,95662.00
2022-12-04T13:09:25.577Z,95654.00
2022-12-04T13:13:39.150Z,95657.00
2022-12-04T13:17:45.484Z,95657.00
2022-12-04T13:22:24.505Z,95652.00
2022-12-04T13:26:49.040Z,95654.00
2022-12-04T13:30:58.601Z,95645.00
2022-12-04T13:35:38.794Z,95649.00
2022-12-04T13:40:06.021Z,95638.00
2022-12-04T13:44:19.524Z,95640.00
2022-12-04T13:48:44.145Z,95648.00
2022-12-04T13:53:37.460Z,95631.00
2022-12-04T13:58:01.529Z,95629.00
2022-12-04T14:02:37.900Z,95620.00
2022-12-04T14:07:35.831Z,95611.00
2022-12-04T14:12:14.892Z,95619.00
2022-12-04T14:16:48.726Z,95618.00
2022-12-04T14:21:28.288Z,95610.00
2022-12-04T14:26:03.297Z,95627.00
2022-12-04T14:30:37.261Z,95619.00
2022-12-04T14:35:15.184Z,95612.00
2022-12-04T14:39:54.104Z,95613.00
2022-12-04T14:44:24.573Z,95611.00
2022-12-04T14:49:08.017Z,95604.00
2022-12-04T14:53:24.132Z,95601.00
2022-12-04T14:57:53.893Z,95607.00
2022-12-04T15:01:57.398Z,95610.00
2022-12-04T15:06:05.116Z,95607.00
2022-12-04T15:10:38.087Z,95610.00
2022-12-04T15:14:44.031Z,95612.00
2022-12-04T15:19:18.112Z,95609.00
2022-12-04T15:23:26.298Z,95617.00
2022-12-04T15:27:32.705Z,95626.00
2022-12-04T15:31:43.463Z,95627.00
2022-12-04T15:36:15.733Z,95636.00
2022-12-04T15:40:23.314Z,95645.00
2022-12-04T15:44:29.402Z,95645.00
2022-12-04T15:49:09.084Z,95652.00
2022-12-04T15:53:18.047Z,95653.00
2022-12-04T15:57:52.453Z,95655.00
2022-12-04T16:01:55.814Z,95655.00
2022-12-04T16:06:16.177Z,95665.00
2022-12-04T16:10:23.541Z,95665.00
2022-12-04T16:14:27.212Z,95672.00
2022-12-04T16:18:30.395Z,95668.00
2022-12-04T16:22:34.822Z,95665.00
2022-12-04T16:27:12.656Z,95665.00
2022-12-04T16:31:16.289Z,95667.00
2022-12-04T16:35:19.445Z,95666.00
2022-12-04T16:39:57.801Z,95649.00
2022-12-04T16:44:37.017Z,95640.00
2022-12-04T16:48:40.059Z,95644.00
2022-12-04T16:53:17.946Z,95643.00
2022-12-04T16:57:53.875Z,95644.00
2022-12-04T17:02:27.927Z,95646.00
2022-12-04T17:07:25.963Z,95650.00
2022-12-04T17:12:02.767Z,95660.00
2022-12-04T17:16:43.735Z,95656.00
2022-12-04T17:20:47.003Z,95657.00
2022-12-04T17:25:25.991Z,95662.00
2022-12-04T17:29:29.159Z,95668.00
2022-12-04T17:33:33.926Z,95679.00
2022-12-04T17:37:38.602Z,95671.00
2022-12-04T17:42:17.623Z,95667.00
2022-12-04T17:46:24.657Z,95669.00
2022-12-04T17:50:29.224Z,95679.00
2022-12-04T17:54:32.762Z,95672.00
2022-12-04T17:59:09.724Z,95676.00
2022-12-04T18:03:12.949Z,95673.00
2022-12-04T18:07:49.143Z,95676.00
2022-12-04T18:11:52.289Z,95680.00
2022-12-04T18:16:29.696Z,95679.00
2022-12-04T18:21:07.761Z,95681.00
2022-12-04T18:25:55.096Z,95680.00
2022-12-04T18:30:19.587Z,95683.00
2022-12-04T18:34:56.737Z,95689.00
2022-12-04T18:39:33.342Z,95692.00
2022-12-04T18:44:12.000Z,95684.00
2022-12-04T18:48:46.699Z,95688.00
2022-12-04T18:53:24.990Z,95691.00
2022-12-04T18:57:58.803Z,95686.00
2022-12-04T19:02:03.671Z,95692.00
2022-12-04T19:06:07.672Z,95693.00
2022-12-04T19:10:12.079Z,95695.00
2022-12-04T19:14:46.218Z,95695.00
2022-12-04T19:18:50.809Z,95702.00
2022-12-04T19:22:53.849Z,95710.00
2022-12-04T19:27:30.909Z,95703.00
2022-12-04T19:31:36.723Z,95688.00
2022-12-04T19:36:13.404Z,95695.00
2022-12-04T19:40:17.279Z,95699.00
2022-12-04T19:48:58.777Z,95708.00
2022-12-04T19:53:03.231Z,95708.00
2022-12-04T19:57:17.719Z,95703.00
2022-12-04T20:01:51.440Z,95704.00
2022-12-04T20:06:29.567Z,95714.00
2022-12-04T20:11:05.450Z,95711.00
2022-12-04T20:15:09.685Z,95730.00
2022-12-04T20:19:46.587Z,95726.00
2022-12-04T20:24:23.301Z,95728.00
2022-12-04T20:29:01.969Z,95742.00
2022-12-04T20:33:35.621Z,95748.00
2022-12-04T20:38:13.539Z,95758.00
2022-12-04T20:42:16.789Z,95764.00
2022-12-04T20:46:25.572Z,95762.00
2022-12-04T20:50:56.391Z,95774.00
2022-12-04T20:55:33.451Z,95763.00
2022-12-04T21:00:10.901Z,95771.00
2022-12-04T21:04:18.080Z,95768.00
2022-12-04T21:08:57.017Z,95782.00
2022-12-04T21:13:55.364Z,95775.00
2022-12-04T21:18:01.701Z,95777.00
2022-12-04T21:22:06.667Z,95790.00
2022-12-04T21:26:09.813Z,95795.00
2022-12-04T21:30:13.880Z,95799.00
2022-12-04T21:34:47.750Z,95796.00
2022-12-04T21:38:52.809Z,95802.00
2022-12-04T21:43:30.472Z,95812.00
2022-12-04T21:48:07.521Z,95807.00
2022-12-04T21:52:44.809Z,95808.00
2022-12-04T21:56:49.352Z,95806.00
2022-12-04T22:01:22.998Z,95804.00
2022-12-04T22:06:01.267Z,95813.00
2022-12-04T22:10:10.480Z,95823.00
2022-12-04T22:14:40.235Z,95814.00
2022-12-04T22:18:43.267Z,95824.00
2022-12-04T22:22:46.482Z,95829.00
2022-12-04T22:26:49.741Z,95815.00
2022-12-04T22:30:54.199Z,95826.00
2022-12-04T22:34:57.323Z,95838.00
2022-12-04T22:39:34.727Z,95843.00
2022-12-04T22:43:40.935Z,95832.00
2022-12-04T22:47:45.866Z,95835.00
2022-12-04T22:51:48.954Z,95836.00
2022-12-04T22:55:51.946Z,95844.00
2022-12-04T22:59:55.475Z,95847.00
2022-12-04T23:04:34.631Z,95852.00
2022-12-04T23:08:37.820Z,95854.00
2022-12-04T23:13:14.433Z,95855.00
2022-12-04T23:17:18.076Z,95854.00
2022-12-04T23:21:57.037Z,95863.00
2022-12-04T23:26:03.458Z,95859.00
2022-12-04T23:30:08.120Z,95862.00
2022-12-04T23:34:11.368Z,95864.00
2022-12-04T23:38:49.845Z,95865.00
2022-12-04T23:42:54.248Z,95871.00
2022-12-04T23:46:59.296Z,95886.00
2022-12-04T23:51:02.560Z,95895.00
2022-12-04T23:55:09.076Z,95892.00
2022-12-04T23:59:39.805Z,95907.00
